createdAt,value
2019-02-18T00:00:56.927Z,0.00
2019-02-18T00:01:56.922Z,0.00
2019-02-18T00:02:56.933Z,0.00
2019-02-18T00:03:56.897Z,0.00
2019-02-18T00:04:56.897Z,0.00
2019-02-18T00:05:56.906Z,0.00
2019-02-18T00:06:56.867Z,0.00
2019-02-18T00:07:56.857Z,0.00
2019-02-18T00:08:56.852Z,0.00
2019-02-18T00:09:56.841Z,0.00
2019-02-18T00:10:56.825Z,0.00
2019-02-18T00:11:56.823Z,0.00
2019-02-18T00:12:56.803Z,0.00
2019-02-18T00:13:56.803Z,0.00
2019-02-18T00:14:56.783Z,0.00
2019-02-18T00:15:56.781Z,0.00
2019-02-18T00:16:56.765Z,0.00
2019-02-18T00:17:56.771Z,0.00
2019-02-18T00:18:56.775Z,0.00
2019-02-18T00:19:56.726Z,0.00
2019-02-18T00:20:56.723Z,0.00
2019-02-18T00:21:56.711Z,0.00
2019-02-18T00:22:56.708Z,0.00
2019-02-18T00:23:56.686Z,0.00
2019-02-18T00:24:56.673Z,0.00
2019-02-18T00:25:56.662Z,0.00
2019-02-18T00:26:56.653Z,0.00
2019-02-18T00:27:56.638Z,0.00
2019-02-18T00:28:56.643Z,0.00
2019-02-18T00:29:56.621Z,0.00
2019-02-18T00:30:56.619Z,0.00
2019-02-18T00:31:56.619Z,0.00
2019-02-18T00:32:56.596Z,0.00
2019-02-18T00:33:56.577Z,0.00
2019-02-18T00:34:56.573Z,0.00
2019-02-18T00:35:56.565Z,0.00
2019-02-18T00:36:56.547Z,0.00
2019-02-18T00:37:56.538Z,0.00
2019-02-18T00:38:56.532Z,0.00
2019-02-18T00:39:56.519Z,0.00
2019-02-18T00:40:56.513Z,0.00
2019-02-18T00:41:56.517Z,0.00
2019-02-18T00:42:56.479Z,0.00
2019-02-18T00:43:56.471Z,0.00
2019-02-18T00:44:56.463Z,0.00
2019-02-18T00:45:56.449Z,0.00
2019-02-18T00:46:56.447Z,0.00
2019-02-18T00:47:56.425Z,0.00
2019-02-18T00:48:56.417Z,0.00
2019-02-18T00:49:56.412Z,0.00
2019-02-18T00:50:56.398Z,0.00
2019-02-18T00:51:56.394Z,0.00
2019-02-18T00:52:56.378Z,0.00
2019-02-18T00:53:56.363Z,0.00
2019-02-18T00:54:56.375Z,0.00
2019-02-18T00:55:56.343Z,0.00
2019-02-18T00:56:56.348Z,0.00
2019-02-18T00:57:56.329Z,0.00
2019-02-18T00:58:56.317Z,0.00
2019-02-18T00:59:56.297Z,0.00
2019-02-18T01:00:56.294Z,0.00
2019-02-18T01:01:56.285Z,0.00
2019-02-18T01:02:56.280Z,0.00
2019-02-18T01:03:56.260Z,0.00
2019-02-18T01:04:56.263Z,0.00
2019-02-18T01:05:56.236Z,0.00
2019-02-18T01:06:56.229Z,0.00
2019-02-18T01:07:56.216Z,0.00
2019-02-18T01:08:56.209Z,0.00
2019-02-18T01:09:56.193Z,0.00
2019-02-18T01:10:56.190Z,0.00
2019-02-18T01:11:56.174Z,0.00
2019-02-18T01:12:56.161Z,0.00
2019-02-18T01:13:56.157Z,0.00
2019-02-18T01:14:56.146Z,0.00
2019-02-18T01:15:56.126Z,0.00
2019-02-18T01:16:56.127Z,0.00
2019-02-18T01:17:56.118Z,0.00
2019-02-18T01:18:56.100Z,0.00
2019-02-18T01:19:56.085Z,0.00
2019-02-18T01:20:56.080Z,0.00
2019-02-18T01:21:56.062Z,0.00
2019-02-18T01:22:56.052Z,0.00
2019-02-18T01:23:56.049Z,0.00
2019-02-18T01:24:56.037Z,0.00
2019-02-18T01:25:56.025Z,0.00
2019-02-18T01:26:56.075Z,0.00
2019-02-18T01:27:56.000Z,0.00
2019-02-18T01:28:55.991Z,0.00
2019-02-18T01:29:55.975Z,0.00
2019-02-18T01:30:55.974Z,0.00
2019-02-18T01:31:55.965Z,0.00
2019-02-18T01:32:55.947Z,0.00
2019-02-18T01:33:55.944Z,0.00
2019-02-18T01:34:55.920Z,0.00
2019-02-18T01:35:55.911Z,0.00
2019-02-18T01:36:55.903Z,0.00
2019-02-18T01:37:55.888Z,0.00
2019-02-18T01:38:55.877Z,0.00
2019-02-18T01:39:55.867Z,0.00
2019-02-18T01:40:55.877Z,0.00
2019-02-18T01:41:55.861Z,0.00
2019-02-18T01:42:55.847Z,0.00
2019-02-18T01:43:55.828Z,0.00
2019-02-18T01:44:55.815Z,0.00
2019-02-18T01:45:55.803Z,0.00
2019-02-18T01:46:55.789Z,0.00
2019-02-18T01:47:55.786Z,0.00
2019-02-18T01:48:55.781Z,0.00
2019-02-18T01:49:55.766Z,0.00
2019-02-18T01:50:55.753Z,0.00
2019-02-18T01:51:55.743Z,0.00
2019-02-18T01:52:55.730Z,0.00
2019-02-18T01:53:55.735Z,0.00
2019-02-18T01:54:55.715Z,0.00
2019-02-18T01:55:55.701Z,0.00
2019-02-18T01:56:55.687Z,0.00
2019-02-18T01:57:55.677Z,0.00
2019-02-18T01:58:55.676Z,0.00
2019-02-18T01:59:55.663Z,0.00
2019-02-18T02:00:55.653Z,0.00
2019-02-18T02:01:55.642Z,0.00
2019-02-18T02:02:55.625Z,0.00
2019-02-18T02:03:55.637Z,0.00
2019-02-18T02:04:55.611Z,0.00
2019-02-18T02:05:55.615Z,0.00
2019-02-18T02:06:55.584Z,0.00
2019-02-18T02:07:56.702Z,0.00
2019-02-18T02:08:55.563Z,0.00
2019-02-18T02:09:55.551Z,0.00
2019-02-18T02:10:55.552Z,0.00
2019-02-18T02:11:55.528Z,0.00
2019-02-18T02:12:55.519Z,0.00
2019-02-18T02:13:55.508Z,0.00
2019-02-18T02:14:55.497Z,0.00
2019-02-18T02:15:55.489Z,0.00
2019-02-18T02:16:55.491Z,0.00
2019-02-18T02:17:55.467Z,0.00
2019-02-18T02:18:55.470Z,0.00
2019-02-18T02:19:55.446Z,0.00
2019-02-18T02:20:55.433Z,0.00
2019-02-18T02:21:55.421Z,0.00
2019-02-18T02:22:55.427Z,0.00
2019-02-18T02:23:55.406Z,0.00
2019-02-18T02:24:55.391Z,0.00
2019-02-18T02:25:55.381Z,0.00
2019-02-18T02:26:55.399Z,0.00
2019-02-18T02:27:55.369Z,0.00
2019-02-18T02:28:55.363Z,0.00
2019-02-18T02:29:55.350Z,0.00
2019-02-18T02:30:55.341Z,0.00
2019-02-18T02:31:55.316Z,0.00
2019-02-18T02:32:55.310Z,0.00
2019-02-18T02:33:55.304Z,0.00
2019-02-18T02:34:55.306Z,0.00
2019-02-18T02:35:55.281Z,0.00
2019-02-18T02:36:55.281Z,0.00
2019-02-18T02:37:55.252Z,0.00
2019-02-18T02:38:55.247Z,0.00
2019-02-18T02:39:55.255Z,0.00
2019-02-18T02:40:55.224Z,0.00
2019-02-18T02:41:55.219Z,0.00
2019-02-18T02:42:55.206Z,0.00
2019-02-18T02:43:55.194Z,0.00
2019-02-18T02:44:55.183Z,0.00
2019-02-18T02:45:55.174Z,0.00
2019-02-18T02:46:55.161Z,0.00
2019-02-18T02:47:55.151Z,0.00
2019-02-18T02:48:55.141Z,0.00
2019-02-18T02:49:55.129Z,0.00
2019-02-18T02:50:55.128Z,0.00
2019-02-18T02:51:55.112Z,0.00
2019-02-18T02:52:55.105Z,0.00
2019-02-18T02:53:55.091Z,0.00
2019-02-18T02:54:55.075Z,0.00
2019-02-18T02:55:55.071Z,0.00
2019-02-18T02:56:55.065Z,0.00
2019-02-18T02:57:55.039Z,0.00
2019-02-18T02:58:55.036Z,0.00
2019-02-18T02:59:55.021Z,0.00
2019-02-18T03:00:55.013Z,0.00
2019-02-18T03:01:55.006Z,0.00
2019-02-18T03:02:55.015Z,0.00
2019-02-18T03:03:54.981Z,0.00
2019-02-18T03:04:54.974Z,0.00
2019-02-18T03:05:54.958Z,0.00
2019-02-18T03:06:54.959Z,0.00
2019-02-18T03:07:54.945Z,0.00
2019-02-18T03:08:54.937Z,0.00
2019-02-18T03:09:54.918Z,0.00
2019-02-18T03:10:54.912Z,0.00
2019-02-18T03:11:54.889Z,0.00
2019-02-18T03:12:54.889Z,0.00
2019-02-18T03:13:54.875Z,0.00
2019-02-18T03:14:54.863Z,0.00
2019-02-18T03:15:54.857Z,0.00
2019-02-18T03:16:54.841Z,0.00
2019-02-18T03:17:54.833Z,0.00
2019-02-18T03:18:54.823Z,0.00
2019-02-18T03:19:54.811Z,0.00
2019-02-18T03:20:54.799Z,0.00
2019-02-18T03:21:54.789Z,0.00
2019-02-18T03:22:54.785Z,0.00
2019-02-18T03:23:54.787Z,0.00
2019-02-18T03:24:54.760Z,0.00
2019-02-18T03:25:54.767Z,0.00
2019-02-18T03:26:54.736Z,0.00
2019-02-18T03:27:54.727Z,0.00
2019-02-18T03:28:54.717Z,0.00
2019-02-18T03:29:54.703Z,0.00
2019-02-18T03:30:54.692Z,0.00
2019-02-18T03:31:54.676Z,0.00
2019-02-18T03:32:54.670Z,0.00
2019-02-18T03:33:54.669Z,0.00
2019-02-18T03:34:54.655Z,0.00
2019-02-18T03:35:54.636Z,0.00
2019-02-18T03:36:54.629Z,0.00
2019-02-18T03:37:54.615Z,0.00
2019-02-18T03:38:54.619Z,0.00
2019-02-18T03:39:54.596Z,0.00
2019-02-18T03:41:02.835Z,0.00
2019-02-18T03:41:55.571Z,0.00
2019-02-18T03:42:54.578Z,0.00
2019-02-18T03:43:54.553Z,0.00
2019-02-18T03:44:54.539Z,0.00
2019-02-18T03:45:54.529Z,0.00
2019-02-18T03:46:54.529Z,0.00
2019-02-18T03:47:54.503Z,0.00
2019-02-18T03:48:54.503Z,0.00
2019-02-18T03:49:54.486Z,0.00
2019-02-18T03:50:54.479Z,0.00
2019-02-18T03:51:54.492Z,0.00
2019-02-18T03:52:54.452Z,0.00
2019-02-18T03:53:54.445Z,0.00
2019-02-18T03:54:54.432Z,0.00
2019-02-18T03:55:54.421Z,0.00
2019-02-18T03:56:54.412Z,0.00
2019-02-18T03:57:54.403Z,0.00
2019-02-18T03:58:54.389Z,0.00
2019-02-18T03:59:54.388Z,0.00
2019-02-18T04:00:54.375Z,0.00
2019-02-18T04:01:54.376Z,0.00
2019-02-18T04:02:54.346Z,0.00
2019-02-18T04:03:54.332Z,0.00
2019-02-18T04:04:54.339Z,0.00
2019-02-18T04:05:54.311Z,0.00
2019-02-18T04:06:54.306Z,0.00
2019-02-18T04:07:54.289Z,0.00
2019-02-18T04:08:54.275Z,0.00
2019-02-18T04:09:54.273Z,0.00
2019-02-18T04:10:54.263Z,0.00
2019-02-18T04:11:54.249Z,0.00
2019-02-18T04:12:54.233Z,0.00
2019-02-18T04:13:54.236Z,0.00
2019-02-18T04:14:54.245Z,0.00
2019-02-18T04:15:54.209Z,0.00
2019-02-18T04:16:54.202Z,0.00
2019-02-18T04:17:54.186Z,0.00
2019-02-18T04:18:54.177Z,0.00
2019-02-18T04:19:54.159Z,0.00
2019-02-18T04:20:54.151Z,0.00
2019-02-18T04:21:54.151Z,0.00
2019-02-18T04:22:54.130Z,0.00
2019-02-18T04:23:54.122Z,0.00
2019-02-18T04:24:54.127Z,0.00
2019-02-18T04:25:54.103Z,0.00
2019-02-18T04:26:54.087Z,0.00
2019-02-18T04:27:54.076Z,0.00
2019-02-18T04:28:54.065Z,0.00
2019-02-18T04:29:54.055Z,0.00
2019-02-18T04:30:54.048Z,0.00
2019-02-18T04:31:54.039Z,0.00
2019-02-18T04:32:54.019Z,0.00
2019-02-18T04:33:54.015Z,0.00
2019-02-18T04:34:54.009Z,0.00
2019-02-18T04:35:53.999Z,0.00
2019-02-18T04:36:53.986Z,0.00
2019-02-18T04:37:53.977Z,0.00
2019-02-18T04:38:54.554Z,0.00
2019-02-18T04:39:53.957Z,0.00
2019-02-18T04:40:53.942Z,0.00
2019-02-18T04:41:53.927Z,0.00
2019-02-18T04:42:53.932Z,0.00
2019-02-18T04:43:53.909Z,0.00
2019-02-18T04:44:53.903Z,0.00
2019-02-18T04:45:53.887Z,0.00
2019-02-18T04:46:53.879Z,0.00
2019-02-18T04:47:53.879Z,0.00
2019-02-18T04:48:53.855Z,0.00
2019-02-18T04:49:53.847Z,0.00
2019-02-18T04:50:53.854Z,0.00
2019-02-18T04:51:53.824Z,0.00
2019-02-18T04:52:53.811Z,0.00
2019-02-18T04:53:53.803Z,0.00
2019-02-18T04:54:53.811Z,0.00
2019-02-18T04:55:53.787Z,0.00
2019-02-18T04:56:53.778Z,0.00
2019-02-18T04:57:53.760Z,0.00
2019-02-18T04:58:53.755Z,0.00
2019-02-18T04:59:53.734Z,0.00
2019-02-18T05:00:53.729Z,0.00
2019-02-18T05:01:53.718Z,0.00
2019-02-18T05:02:53.709Z,0.00
2019-02-18T05:03:53.695Z,0.00
2019-02-18T05:04:53.677Z,0.00
2019-02-18T05:05:53.676Z,0.00
2019-02-18T05:06:53.667Z,0.00
2019-02-18T05:07:53.665Z,0.00
2019-02-18T05:09:02.984Z,0.00
2019-02-18T05:09:54.638Z,0.00
2019-02-18T05:10:53.631Z,0.00
2019-02-18T05:11:53.625Z,0.00
2019-02-18T05:12:53.603Z,0.00
2019-02-18T05:13:53.606Z,0.00
2019-02-18T05:14:53.585Z,0.00
2019-02-18T05:15:53.567Z,0.00
2019-02-18T05:16:53.556Z,0.00
2019-02-18T05:17:53.559Z,0.00
2019-02-18T05:18:53.542Z,0.00
2019-02-18T05:19:53.533Z,0.00
2019-02-18T05:20:53.514Z,0.00
2019-02-18T05:21:53.505Z,0.00
2019-02-18T05:22:53.497Z,0.00
2019-02-18T05:23:53.497Z,0.00
2019-02-18T05:24:53.480Z,0.00
2019-02-18T05:25:53.473Z,0.00
2019-02-18T05:26:53.453Z,0.00
2019-02-18T05:27:53.446Z,0.00
2019-02-18T05:28:53.438Z,0.00
2019-02-18T05:29:53.430Z,0.00
2019-02-18T05:30:53.428Z,0.00
2019-02-18T05:31:53.400Z,0.00
2019-02-18T05:32:53.398Z,0.00
2019-02-18T05:33:53.385Z,0.00
2019-02-18T05:34:53.384Z,4.00
2019-02-18T05:35:55.864Z,4.00
2019-02-18T05:36:53.358Z,4.00
2019-02-18T05:37:53.336Z,4.00
2019-02-18T05:38:53.327Z,4.00
2019-02-18T05:39:55.362Z,4.00
2019-02-18T05:40:53.317Z,4.00
2019-02-18T05:41:53.297Z,4.00
2019-02-18T05:42:53.292Z,0.00
2019-02-18T05:43:53.279Z,0.00
2019-02-18T05:44:53.269Z,4.00
2019-02-18T05:45:53.268Z,4.00
2019-02-18T05:46:53.258Z,0.00
2019-02-18T05:47:53.241Z,4.00
2019-02-18T05:48:53.233Z,4.00
2019-02-18T05:49:53.221Z,4.00
2019-02-18T05:50:53.201Z,4.00
2019-02-18T05:51:53.193Z,4.00
2019-02-18T05:52:53.183Z,8.00
2019-02-18T05:53:53.180Z,8.00
2019-02-18T05:54:53.160Z,8.00
2019-02-18T05:55:53.148Z,12.00
2019-02-18T05:56:53.143Z,12.00
2019-02-18T05:57:53.154Z,16.00
2019-02-18T05:58:53.121Z,20.00
2019-02-18T05:59:53.129Z,24.00
2019-02-18T06:00:53.122Z,24.00
2019-02-18T06:01:53.091Z,28.00
2019-02-18T06:02:53.078Z,32.00
2019-02-18T06:03:53.083Z,40.00
2019-02-18T06:04:53.062Z,44.00
2019-02-18T06:05:53.055Z,48.00
2019-02-18T06:06:53.042Z,56.00
2019-02-18T06:07:53.031Z,64.00
2019-02-18T06:08:53.022Z,72.00
2019-02-18T06:09:53.027Z,84.00
2019-02-18T06:10:53.002Z,92.00
2019-02-18T06:11:52.997Z,104.00
2019-02-18T06:12:52.977Z,112.00
2019-02-18T06:13:52.958Z,128.00
2019-02-18T06:14:52.954Z,140.00
2019-02-18T06:15:52.943Z,160.00
2019-02-18T06:16:52.939Z,176.00
2019-02-18T06:17:52.933Z,196.00
2019-02-18T06:18:52.914Z,212.00
2019-02-18T06:19:52.903Z,232.00
2019-02-18T06:20:52.900Z,248.00
2019-02-18T06:21:52.901Z,268.00
2019-02-18T06:22:52.883Z,292.00
2019-02-18T06:23:52.857Z,316.00
2019-02-18T06:24:52.857Z,344.00
2019-02-18T06:25:52.834Z,372.00
2019-02-18T06:26:52.838Z,400.00
2019-02-18T06:27:52.815Z,432.00
2019-02-18T06:28:52.809Z,464.00
2019-02-18T06:29:52.799Z,496.00
2019-02-18T06:30:54.913Z,536.00
2019-02-18T06:31:52.785Z,580.00
2019-02-18T06:32:52.788Z,620.00
2019-02-18T06:33:52.761Z,660.00
2019-02-18T06:34:52.746Z,704.00
2019-02-18T06:35:52.741Z,748.00
2019-02-18T06:36:52.727Z,788.00
2019-02-18T06:37:52.713Z,812.00
2019-02-18T06:38:52.708Z,832.00
2019-02-18T06:39:52.702Z,864.00
2019-02-18T06:40:52.699Z,900.00
2019-02-18T06:41:52.675Z,940.00
2019-02-18T06:42:52.659Z,980.00
2019-02-18T06:43:52.657Z,1016.00
2019-02-18T06:44:52.641Z,1060.00
2019-02-18T06:45:52.649Z,1104.00
2019-02-18T06:46:52.613Z,1156.00
2019-02-18T06:47:52.610Z,1204.00
2019-02-18T06:48:52.597Z,1248.00
2019-02-18T06:49:52.592Z,1300.00
2019-02-18T06:50:52.580Z,1360.00
2019-02-18T06:51:52.570Z,1420.00
2019-02-18T06:52:52.558Z,1472.00
2019-02-18T06:53:52.558Z,1516.00
2019-02-18T06:54:52.535Z,1552.00
2019-02-18T06:55:52.561Z,1588.00
2019-02-18T06:56:52.523Z,1644.00
2019-02-18T06:57:52.513Z,1716.00
2019-02-18T06:58:52.493Z,1780.00
2019-02-18T06:59:52.489Z,1836.00
2019-02-18T07:00:52.483Z,1884.00
2019-02-18T07:01:52.459Z,1932.00
2019-02-18T07:02:52.459Z,1984.00
2019-02-18T07:03:52.458Z,2040.00
2019-02-18T07:04:52.431Z,2084.00
2019-02-18T07:05:52.433Z,2128.00
2019-02-18T07:06:52.413Z,2180.00
2019-02-18T07:07:52.398Z,2224.00
2019-02-18T07:08:52.410Z,2268.00
2019-02-18T07:09:52.391Z,2328.00
2019-02-18T07:10:52.373Z,2408.00
2019-02-18T07:11:52.360Z,2496.00
2019-02-18T07:12:52.349Z,2576.00
2019-02-18T07:13:52.337Z,2608.00
2019-02-18T07:14:52.343Z,2672.00
2019-02-18T07:15:52.329Z,2792.00
2019-02-18T07:16:52.307Z,3040.00
2019-02-18T07:17:52.297Z,3304.00
2019-02-18T07:18:52.285Z,3520.00
2019-02-18T07:19:52.277Z,3772.00
2019-02-18T07:20:52.269Z,4020.00
2019-02-18T07:21:52.255Z,4144.00
2019-02-18T07:22:52.243Z,4240.00
2019-02-18T07:23:52.234Z,4328.00
2019-02-18T07:24:52.225Z,4420.00
2019-02-18T07:25:52.216Z,4532.00
2019-02-18T07:26:52.209Z,4664.00
2019-02-18T07:27:52.187Z,4788.00
2019-02-18T07:28:52.181Z,4912.00
2019-02-18T07:29:52.172Z,5012.00
2019-02-18T07:30:52.155Z,5128.00
2019-02-18T07:31:52.165Z,5252.00
2019-02-18T07:32:52.143Z,5440.00
2019-02-18T07:33:52.121Z,10744.00
2019-02-18T07:34:52.113Z,31648.00
2019-02-18T07:35:52.105Z,48064.00
2019-02-18T07:36:52.094Z,49600.00
2019-02-18T07:37:52.083Z,50528.00
2019-02-18T07:38:52.066Z,52160.00
2019-02-18T07:40:01.231Z,54912.00
2019-02-18T07:40:53.043Z,55072.00
2019-02-18T07:41:52.031Z,52896.00
2019-02-18T07:42:52.035Z,54240.00
2019-02-18T07:43:52.025Z,51744.00
2019-02-18T07:44:52.009Z,54272.00
2019-02-18T07:45:51.997Z,53472.00
2019-02-18T07:46:51.985Z,48512.00
2019-02-18T07:47:51.983Z,36640.00
2019-02-18T07:48:51.966Z,21376.00
2019-02-18T07:49:51.951Z,11772.00
2019-02-18T07:50:51.944Z,7052.00
2019-02-18T07:51:51.935Z,6988.00
2019-02-18T07:52:51.947Z,7012.00
2019-02-18T07:53:51.911Z,7068.00
2019-02-18T07:54:51.929Z,7192.00
2019-02-18T07:55:51.889Z,7296.00
2019-02-18T07:56:51.875Z,7416.00
2019-02-18T07:57:51.867Z,7536.00
2019-02-18T07:58:51.858Z,7644.00
2019-02-18T07:59:51.851Z,7720.00
2019-02-18T08:00:51.840Z,7792.00
2019-02-18T08:01:51.821Z,7924.00
2019-02-18T08:02:51.812Z,8028.00
2019-02-18T08:03:51.805Z,8124.00
2019-02-18T08:04:51.801Z,8232.00
2019-02-18T08:05:51.784Z,8380.00
2019-02-18T08:06:51.763Z,8700.00
2019-02-18T08:07:51.776Z,16864.00
2019-02-18T08:08:51.752Z,30496.00
2019-02-18T08:09:51.741Z,46688.00
2019-02-18T08:10:51.722Z,61280.00
2019-02-18T08:11:51.720Z,70976.00
2019-02-18T08:12:51.701Z,72544.00
2019-02-18T08:13:51.700Z,74144.00
2019-02-18T08:14:51.681Z,75680.00
2019-02-18T08:15:51.677Z,74592.00
2019-02-18T08:16:51.667Z,76448.00
2019-02-18T08:17:51.677Z,75552.00
2019-02-18T08:18:51.640Z,77152.00
2019-02-18T08:19:51.630Z,77504.00
2019-02-18T08:20:51.616Z,78304.00
2019-02-18T08:21:51.609Z,80000.00
2019-02-18T08:22:51.607Z,79104.00
2019-02-18T08:23:59.702Z,78656.00
2019-02-18T08:24:52.575Z,78432.00
2019-02-18T08:25:51.573Z,79488.00
2019-02-18T08:26:51.564Z,78880.00
2019-02-18T08:27:51.550Z,78272.00
2019-02-18T08:28:51.540Z,82144.00
2019-02-18T08:29:51.526Z,80160.00
2019-02-18T08:30:51.526Z,80864.00
2019-02-18T08:31:51.506Z,82272.00
2019-02-18T08:32:51.505Z,80576.00
2019-02-18T08:33:51.481Z,81568.00
2019-02-18T08:34:51.474Z,81600.00
2019-02-18T08:35:51.464Z,82240.00
2019-02-18T08:36:51.452Z,80640.00
2019-02-18T08:37:51.442Z,80512.00
2019-02-18T08:38:51.432Z,81664.00
2019-02-18T08:39:51.460Z,82912.00
2019-02-18T08:40:51.443Z,85344.00
2019-02-18T08:41:51.398Z,84800.00
2019-02-18T08:42:51.388Z,85600.00
2019-02-18T08:43:51.387Z,86880.00
2019-02-18T08:44:51.369Z,85568.00
2019-02-18T08:45:51.366Z,86304.00
2019-02-18T08:46:51.362Z,87200.00
2019-02-18T08:47:51.338Z,90336.00
2019-02-18T08:48:51.342Z,86688.00
2019-02-18T08:49:51.317Z,86880.00
2019-02-18T08:50:51.315Z,87328.00
2019-02-18T08:51:51.314Z,87392.00
2019-02-18T08:52:51.290Z,88480.00
2019-02-18T08:53:51.283Z,86016.00
2019-02-18T08:54:56.437Z,87904.00
2019-02-18T08:55:52.263Z,88192.00
2019-02-18T08:56:51.247Z,87104.00
2019-02-18T08:57:51.368Z,87296.00
2019-02-18T08:58:51.239Z,88960.00
2019-02-18T08:59:51.219Z,90112.00
2019-02-18T09:00:51.211Z,89760.00
2019-02-18T09:01:51.204Z,87776.00
2019-02-18T09:02:51.187Z,90624.00
2019-02-18T09:03:51.201Z,90016.00
2019-02-18T09:04:51.171Z,91808.00
2019-02-18T09:05:51.157Z,89728.00
2019-02-18T09:06:51.157Z,90784.00
2019-02-18T09:07:51.142Z,89920.00
2019-02-18T09:08:51.137Z,90624.00
2019-02-18T09:09:51.376Z,86432.00
2019-02-18T09:10:51.131Z,82880.00
2019-02-18T09:11:51.106Z,80768.00
2019-02-18T09:12:51.089Z,83584.00
2019-02-18T09:13:51.081Z,84832.00
2019-02-18T09:14:51.079Z,86368.00
2019-02-18T09:15:59.642Z,91264.00
2019-02-18T09:16:52.055Z,96896.00
2019-02-18T09:17:51.049Z,98560.00
2019-02-18T09:18:51.078Z,95680.00
2019-02-18T09:19:51.023Z,94560.00
2019-02-18T09:20:51.748Z,83968.00
2019-02-18T09:21:51.015Z,73728.00
2019-02-18T09:23:21.700Z,83648.00
2019-02-18T09:24:21.646Z,93440.00
2019-02-18T09:25:52.331Z,95840.00
2019-02-18T09:26:52.345Z,93856.00
2019-02-18T09:27:52.293Z,95136.00
2019-02-18T09:28:52.303Z,93504.00
2019-02-18T09:29:52.340Z,93312.00
2019-02-18T09:30:52.255Z,90656.00
2019-02-18T09:31:52.254Z,85600.00
2019-02-18T09:32:52.237Z,87104.00
2019-02-18T09:33:52.231Z,92288.00
2019-02-18T09:34:53.190Z,96608.00
2019-02-18T09:35:52.213Z,85152.00
2019-02-18T09:36:52.208Z,77376.00
2019-02-18T09:37:52.195Z,77984.00
2019-02-18T09:38:52.183Z,76352.00
2019-02-18T09:39:52.172Z,76160.00
2019-02-18T09:40:52.171Z,73504.00
2019-02-18T09:41:52.161Z,52480.00
2019-02-18T09:42:52.146Z,43936.00
2019-02-18T09:43:52.133Z,61088.00
2019-02-18T09:44:52.121Z,96992.00
2019-02-18T09:45:52.136Z,93664.00
2019-02-18T09:46:52.128Z,84192.00
2019-02-18T09:47:54.222Z,93536.00
2019-02-18T09:48:52.093Z,95104.00
2019-02-18T09:49:52.076Z,94528.00
2019-02-18T09:50:52.071Z,92704.00
2019-02-18T09:51:52.062Z,72960.00
2019-02-18T09:52:52.747Z,56928.00
2019-02-18T09:53:52.038Z,48672.00
2019-02-18T09:55:22.789Z,61504.00
2019-02-18T09:56:22.736Z,76992.00
2019-02-18T09:57:53.410Z,87936.00
2019-02-18T09:58:53.374Z,92032.00
2019-02-18T10:00:24.077Z,92672.00
2019-02-18T10:01:24.061Z,90688.00
2019-02-18T10:02:54.755Z,63712.00
2019-02-18T10:03:54.701Z,31520.00
2019-02-18T10:05:25.361Z,71488.00
2019-02-18T10:06:25.357Z,70240.00
2019-02-18T10:07:56.033Z,66208.00
2019-02-18T10:08:56.011Z,59520.00
2019-02-18T10:10:26.680Z,64896.00
2019-02-18T10:11:26.664Z,58848.00
2019-02-18T10:12:59.564Z,63648.00
2019-02-18T10:13:57.327Z,66624.00
2019-02-18T10:14:57.360Z,81024.00
2019-02-18T10:15:57.302Z,60160.00
2019-02-18T10:16:57.294Z,51872.00
2019-02-18T10:17:57.285Z,49728.00
2019-02-18T10:18:57.269Z,44832.00
2019-02-18T10:19:57.262Z,52000.00
2019-02-18T10:20:57.250Z,78624.00
2019-02-18T10:21:57.252Z,83520.00
2019-02-18T10:22:57.221Z,83168.00
2019-02-18T10:23:57.223Z,90240.00
2019-02-18T10:24:57.210Z,90688.00
2019-02-18T10:25:57.203Z,93472.00
2019-02-18T10:26:57.188Z,90176.00
2019-02-18T10:27:57.173Z,87808.00
2019-02-18T10:28:57.178Z,88832.00
2019-02-18T10:29:57.165Z,68288.00
2019-02-18T10:30:57.147Z,56640.00
2019-02-18T10:31:57.155Z,52512.00
2019-02-18T10:32:57.121Z,20256.00
2019-02-18T10:33:57.110Z,9320.00
2019-02-18T10:34:57.100Z,9168.00
2019-02-18T10:35:57.092Z,9064.00
2019-02-18T10:36:57.085Z,8988.00
2019-02-18T10:37:57.070Z,8880.00
2019-02-18T10:38:57.063Z,8740.00
2019-02-18T10:39:57.054Z,8648.00
2019-02-18T10:41:06.644Z,8612.00
2019-02-18T10:41:58.034Z,8632.00
2019-02-18T10:42:57.017Z,8656.00
2019-02-18T10:43:57.012Z,8668.00
2019-02-18T10:44:57.027Z,8724.00
2019-02-18T10:45:56.992Z,12912.00
2019-02-18T10:46:56.982Z,14464.00
2019-02-18T10:47:56.964Z,11468.00
2019-02-18T10:48:56.959Z,10940.00
2019-02-18T10:49:56.944Z,19968.00
2019-02-18T10:50:56.935Z,43040.00
2019-02-18T10:51:56.923Z,71552.00
2019-02-18T10:52:56.917Z,46848.00
2019-02-18T10:53:56.906Z,24960.00
2019-02-18T10:54:56.898Z,11908.00
2019-02-18T10:55:56.882Z,8956.00
2019-02-18T10:56:56.864Z,13208.00
2019-02-18T10:57:56.859Z,23840.00
2019-02-18T10:58:56.846Z,21440.00
2019-02-18T10:59:59.146Z,18656.00
2019-02-18T11:00:56.823Z,11084.00
2019-02-18T11:01:56.816Z,7820.00
2019-02-18T11:02:56.811Z,7776.00
2019-02-18T11:03:56.798Z,7740.00
2019-02-18T11:04:56.785Z,7668.00
2019-02-18T11:05:56.776Z,7664.00
2019-02-18T11:06:56.760Z,7708.00
2019-02-18T11:07:56.757Z,7588.00
2019-02-18T11:08:56.739Z,7556.00
2019-02-18T11:09:56.727Z,7524.00
2019-02-18T11:10:56.723Z,7460.00
2019-02-18T11:11:56.708Z,7432.00
2019-02-18T11:12:56.695Z,7408.00
2019-02-18T11:13:56.679Z,7348.00
2019-02-18T11:14:56.671Z,7284.00
2019-02-18T11:15:56.658Z,7224.00
2019-02-18T11:16:56.649Z,7216.00
2019-02-18T11:17:56.690Z,7200.00
2019-02-18T11:18:56.639Z,7152.00
2019-02-18T11:19:56.616Z,7096.00
2019-02-18T11:20:56.618Z,7072.00
2019-02-18T11:21:56.603Z,7032.00
2019-02-18T11:22:56.585Z,6972.00
2019-02-18T11:23:56.579Z,6944.00
2019-02-18T11:24:56.562Z,6900.00
2019-02-18T11:25:56.555Z,6820.00
2019-02-18T11:26:56.544Z,6692.00
2019-02-18T11:27:56.531Z,6636.00
2019-02-18T11:28:56.515Z,6624.00
2019-02-18T11:29:56.513Z,6552.00
2019-02-18T11:30:56.518Z,6472.00
2019-02-18T11:31:56.487Z,6440.00
2019-02-18T11:32:56.493Z,6436.00
2019-02-18T11:33:56.472Z,6352.00
2019-02-18T11:34:56.455Z,6300.00
2019-02-18T11:35:56.470Z,6704.00
2019-02-18T11:36:56.439Z,6996.00
2019-02-18T11:37:56.426Z,6132.00
2019-02-18T11:38:56.416Z,6088.00
2019-02-18T11:39:56.410Z,6072.00
2019-02-18T11:40:56.396Z,6072.00
2019-02-18T11:41:56.376Z,6052.00
2019-02-18T11:42:56.370Z,6036.00
2019-02-18T11:43:56.374Z,6020.00
2019-02-18T11:44:56.346Z,5980.00
2019-02-18T11:45:56.366Z,5928.00
2019-02-18T11:46:56.324Z,5892.00
2019-02-18T11:47:56.313Z,5856.00
2019-02-18T11:48:56.322Z,5808.00
2019-02-18T11:49:56.295Z,5768.00
2019-02-18T11:50:56.288Z,5700.00
2019-02-18T11:51:56.266Z,5664.00
2019-02-18T11:52:56.266Z,5636.00
2019-02-18T11:53:56.276Z,5624.00
2019-02-18T11:54:56.238Z,5608.00
2019-02-18T11:55:56.228Z,5572.00
2019-02-18T11:56:56.209Z,5508.00
2019-02-18T11:57:56.199Z,5424.00
2019-02-18T11:58:56.194Z,5340.00
2019-02-18T11:59:56.181Z,5260.00
2019-02-18T12:00:56.166Z,5224.00
2019-02-18T12:01:56.158Z,5188.00
2019-02-18T12:03:02.928Z,5184.00
2019-02-18T12:03:57.148Z,5180.00
2019-02-18T12:04:56.127Z,5148.00
2019-02-18T12:05:56.113Z,5104.00
2019-02-18T12:06:56.107Z,5104.00
2019-02-18T12:07:56.097Z,5092.00
2019-02-18T12:08:56.085Z,5092.00
2019-02-18T12:09:56.069Z,5076.00
2019-02-18T12:10:56.081Z,5048.00
2019-02-18T12:11:56.050Z,5040.00
2019-02-18T12:12:56.115Z,5064.00
2019-02-18T12:13:56.028Z,5080.00
2019-02-18T12:14:56.020Z,5064.00
2019-02-18T12:15:56.000Z,5040.00
2019-02-18T12:16:56.004Z,5016.00
2019-02-18T12:17:55.990Z,4980.00
2019-02-18T12:18:55.974Z,4940.00
2019-02-18T12:19:55.967Z,4884.00
2019-02-18T12:20:55.955Z,4832.00
2019-02-18T12:21:55.938Z,4796.00
2019-02-18T12:22:55.930Z,4780.00
2019-02-18T12:23:55.924Z,4776.00
2019-02-18T12:24:55.917Z,4792.00
2019-02-18T12:25:55.898Z,4808.00
2019-02-18T12:26:55.884Z,4796.00
2019-02-18T12:27:55.883Z,4760.00
2019-02-18T12:28:55.861Z,4748.00
2019-02-18T12:29:55.877Z,4756.00
2019-02-18T12:30:55.838Z,4740.00
2019-02-18T12:31:55.836Z,4732.00
2019-02-18T12:32:55.831Z,4732.00
2019-02-18T12:33:55.811Z,4748.00
2019-02-18T12:34:55.802Z,4740.00
2019-02-18T12:35:55.790Z,4720.00
2019-02-18T12:36:55.781Z,4660.00
2019-02-18T12:37:55.881Z,4576.00
2019-02-18T12:38:55.756Z,4436.00
2019-02-18T12:39:55.752Z,4252.00